Gabo Island, Victoria

1:39 AM AEST on September 18, 2014 (GMT +1000)
Main Wharf, Mallacoota, Vic, Australia | Change Station
CLOSE
Current Station
Personal Weather Station
Location: Mallacoota, VICTORIA
Elevation: 29 ft
Nearby Weather Stations

Elev 29 ft 37.55 °S, 149.76 °E | Updated 2 seconds ago

Clear
Clear
47.7 °F
Feels Like 44 °F
N
7.2
Wind Variable Wind from WSW
Gusts 7.2 mph

Today
High -- | Low -- °F
--% Chance of Precip.
Yesterday
High -- | Low -- °F
Precip. -- in
5:56 AM 5:53 PM
Waning Crescent, 35% visible
Pressure 29.95 in
Visibility 6.2 miles
Clouds
Windchill 44 °F
Dew Point 37 °F
Humidity 68%
Rainfall 0.00 in
Snow Depth Not available.
UV Not available.
Pollen Not available.
Air Quality Not available.
Flu Activity Not available.
METAR YMER 171500Z AUTO 28009KT 9999 // NCD 09/01 Q1014

More Conditions Fewer Conditions

Pressure 29.95 in
Visibility 6.2 miles
Clouds
Windchill 44 °F
Dew Point 37 °F
Humidity 68%
Rainfall 0.00 in
Snow Depth Not available.
UV Not available.
Pollen Not available.
Air Quality Not available.
Flu Activity Not available.
METAR YMER 171500Z AUTO 28009KT 9999 // NCD 09/01 Q1014

More Conditions Fewer Conditions

10-Day Weather Forecast

Almanac

Astronomy

Sep. 18, 2014 Rise Set
Actual Time 5:56 AM AEST 5:53 PM AEST
Civil Twilight 5:30 AM AEST 6:19 PM AEST
Nautical Twilight 5:00 AM AEST 6:49 PM AEST
Astronomical Twilight 4:29 AM AEST 7:20 PM AEST
Moon 2:04 AM AEST (9/18) 12:31 PM AEST (9/18)
Length of Visible Light 12h 48m
Length of Day
11h 56m
Tomorrow will be 2m 22s longer.
Waning Crescent, 35% of the Moon is Illuminated
Sep 17
Waning Crescent
Sep 24
New
Oct 1
First Quarter
Oct 8
Full
Oct 15
Last Quarter

Yesterday's Extremes

Country Highs Country Lows

Community

WunderPhotos

Upload Photos

1,754,068 photos uploaded!

WunderBlogs® & News

Nearby

Snow Depth

Not available.

Earthquake Activity

City Distance Mag. Time & Date
No recent earthquake activity has been reported nearby.
Minimum magnitude displayed is 2.5.

Coastal Water Temperatures

Place Temperature
No Stations Reporting

Nearby Weather Stations